Anzahl Datensätze: 286
min. Temperatur: 4.3 °C
max. Temperatur: 15.0 °C
max. Windgeschwindigkeit: 29.9 km/h
Niederschlagsumme: 0.0 mm
| Datum |
Zeit |
Temp °C |
Feuchte % |
Taupunkt °C |
Luftdruck hPa |
Wind km/h |
Windrichtung |
Strahlung w/m² |
Niederschlag mm |
|---|---|---|---|---|---|---|---|---|---|
| 15.09.2024 | 00:01 | 6.8 | 74 | 2.5 | 1026.4 | 5.0 | N | 0 | 0.0 |
| 15.09.2024 | 00:06 | 6.8 | 74 | 2.5 | 1026.4 | 2.5 | N | 0 | 0.0 |
| 15.09.2024 | 00:11 | 6.5 | 76 | 2.5 | 1026.4 | 6.1 | N | 0 | 0.0 |
| 15.09.2024 | 00:16 | 6.4 | 76 | 2.5 | 1026.4 | 8.6 | N | 0 | 0.0 |
| 15.09.2024 | 00:21 | 6.7 | 74 | 2.4 | 1026.3 | 6.1 | N | 0 | 0.0 |
| 15.09.2024 | 00:26 | 6.4 | 75 | 2.4 | 1026.4 | 2.5 | N | 0 | 0.0 |
| 15.09.2024 | 00:31 | 6.4 | 75 | 2.4 | 1026.3 | 3.6 | N | 0 | 0.0 |
| 15.09.2024 | 00:36 | 6.1 | 77 | 2.5 | 1026.3 | 2.2 | N | 0 | 0.0 |
| 15.09.2024 | 00:41 | 6.0 | 79 | 2.5 | 1026.4 | 4.0 | N | 0 | 0.0 |
| 15.09.2024 | 00:46 | 6.1 | 77 | 2.4 | 1026.4 | 7.6 | N | 0 | 0.0 |
| 15.09.2024 | 00:51 | 6.2 | 77 | 2.4 | 1026.3 | 2.2 | N | 0 | 0.0 |
| 15.09.2024 | 00:56 | 6.4 | 76 | 2.6 | 1026.3 | 1.4 | N | 0 | 0.0 |
| 15.09.2024 | 01:01 | 6.6 | 76 | 2.7 | 1026.2 | 5.0 | N | 0 | 0.0 |
| 15.09.2024 | 01:06 | 6.7 | 75 | 2.7 | 1026.1 | 3.6 | N | 0 | 0.0 |
| 15.09.2024 | 01:11 | 6.5 | 76 | 2.6 | 1026.1 | 5.0 | N | 0 | 0.0 |
| 15.09.2024 | 01:16 | 6.4 | 76 | 2.5 | 1026.1 | 5.4 | N | 0 | 0.0 |
| 15.09.2024 | 01:21 | 6.5 | 75 | 2.4 | 1026.1 | 7.6 | N | 0 | 0.0 |
| 15.09.2024 | 01:27 | 6.6 | 74 | 2.4 | 1026.1 | 1.1 | N | 0 | 0.0 |
| 15.09.2024 | 01:32 | 6.4 | 75 | 2.4 | 1026.0 | 2.9 | N | 0 | 0.0 |
| 15.09.2024 | 01:37 | 6.6 | 74 | 2.3 | 1026.0 | 4.0 | N | 0 | 0.0 |
| 15.09.2024 | 01:42 | 6.7 | 73 | 2.3 | 1026.0 | 3.2 | N | 0 | 0.0 |
| 15.09.2024 | 01:47 | 6.7 | 74 | 2.3 | 1026.0 | 1.4 | N | 0 | 0.0 |
| 15.09.2024 | 01:52 | 6.2 | 77 | 2.5 | 1026.1 | 0.7 | N | 0 | 0.0 |
| 15.09.2024 | 01:57 | 6.1 | 78 | 2.5 | 1026.0 | 5.4 | N | 0 | 0.0 |
| 15.09.2024 | 02:02 | 5.8 | 79 | 2.3 | 1026.1 | 3.6 | N | 0 | 0.0 |
| 15.09.2024 | 02:07 | 5.8 | 78 | 2.3 | 1026.0 | 2.9 | N | 0 | 0.0 |
| 15.09.2024 | 02:12 | 5.6 | 79 | 2.3 | 1026.1 | 2.2 | N | 0 | 0.0 |
| 15.09.2024 | 02:17 | 5.6 | 79 | 2.3 | 1026.1 | 3.6 | N | 0 | 0.0 |
| 15.09.2024 | 02:22 | 5.4 | 80 | 2.2 | 1026.1 | 3.2 | N | 0 | 0.0 |
| 15.09.2024 | 02:27 | 5.7 | 78 | 2.2 | 1025.9 | 7.2 | N | 0 | 0.0 |
| 15.09.2024 | 02:32 | 5.8 | 78 | 2.2 | 1025.9 | 3.6 | N | 0 | 0.0 |
| 15.09.2024 | 02:37 | 6.2 | 75 | 2.2 | 1025.9 | 4.0 | N | 0 | 0.0 |
| 15.09.2024 | 02:42 | 6.1 | 77 | 2.3 | 1025.7 | 1.8 | N | 0 | 0.0 |
| 15.09.2024 | 02:47 | 5.8 | 78 | 2.2 | 1025.7 | 4.0 | N | 0 | 0.0 |
| 15.09.2024 | 02:52 | 5.6 | 79 | 2.2 | 1025.9 | 1.8 | N | 0 | 0.0 |
| 15.09.2024 | 02:57 | 5.9 | 80 | 2.7 | 1025.8 | 6.5 | N | 0 | 0.0 |
| 15.09.2024 | 03:02 | 5.5 | 80 | 2.3 | 1026.0 | 4.0 | N | 0 | 0.0 |
| 15.09.2024 | 03:07 | 5.4 | 81 | 2.4 | 1026.0 | 2.9 | N | 0 | 0.0 |
| 15.09.2024 | 03:12 | 5.4 | 81 | 2.4 | 1025.9 | 4.0 | N | 0 | 0.0 |
| 15.09.2024 | 03:17 | 5.1 | 82 | 2.3 | 1026.0 | 4.0 | N | 0 | 0.0 |
| 15.09.2024 | 03:22 | 4.9 | 82 | 2.0 | 1026.1 | 4.0 | N | 0 | 0.0 |
| 15.09.2024 | 03:27 | 4.9 | 81 | 1.9 | 1026.2 | 4.7 | N | 0 | 0.0 |
| 15.09.2024 | 03:32 | 4.7 | 81 | 1.8 | 1026.2 | 5.4 | N | 0 | 0.0 |
| 15.09.2024 | 03:37 | 4.9 | 80 | 1.8 | 1026.1 | 4.7 | N | 0 | 0.0 |
| 15.09.2024 | 03:42 | 4.9 | 81 | 1.9 | 1026.2 | 2.9 | N | 0 | 0.0 |
| 15.09.2024 | 03:47 | 4.9 | 81 | 1.9 | 1026.1 | 4.3 | N | 0 | 0.0 |
| 15.09.2024 | 03:52 | 4.9 | 81 | 1.8 | 1026.1 | 3.2 | N | 0 | 0.0 |
| 15.09.2024 | 03:58 | 5.0 | 81 | 1.9 | 1026.2 | 4.3 | N | 0 | 0.0 |
| 15.09.2024 | 04:03 | 4.8 | 81 | 1.8 | 1026.1 | 4.3 | N | 0 | 0.0 |
| 15.09.2024 | 04:08 | 5.0 | 81 | 2.0 | 1026.3 | 2.5 | N | 0 | 0.0 |
| 15.09.2024 | 04:13 | 4.7 | 83 | 2.0 | 1026.0 | 3.6 | N | 0 | 0.0 |
| 15.09.2024 | 04:18 | 4.7 | 84 | 2.2 | 1026.2 | 1.4 | N | 0 | 0.0 |
| 15.09.2024 | 04:23 | 5.0 | 82 | 2.2 | 1026.1 | 2.9 | N | 0 | 0.0 |
| 15.09.2024 | 04:28 | 4.7 | 82 | 1.9 | 1026.2 | 2.2 | N | 0 | 0.0 |
| 15.09.2024 | 04:33 | 4.7 | 83 | 2.0 | 1026.2 | 2.9 | N | 0 | 0.0 |
| 15.09.2024 | 04:38 | 4.4 | 83 | 1.8 | 1026.1 | 5.0 | N | 0 | 0.0 |
| 15.09.2024 | 04:43 | 4.4 | 83 | 1.7 | 1026.2 | 2.9 | N | 0 | 0.0 |
| 15.09.2024 | 04:48 | 4.4 | 83 | 1.8 | 1026.2 | 2.9 | N | 0 | 0.0 |
| 15.09.2024 | 04:53 | 4.4 | 83 | 1.7 | 1026.2 | 3.6 | N | 0 | 0.0 |
| 15.09.2024 | 04:58 | 4.4 | 82 | 1.6 | 1026.3 | 1.4 | N | 0 | 0.0 |
| 15.09.2024 | 05:03 | 4.8 | 83 | 2.1 | 1026.2 | 1.8 | N | 0 | 0.0 |
| 15.09.2024 | 05:08 | 4.7 | 83 | 2.0 | 1026.4 | 3.6 | N | 0 | 0.0 |
| 15.09.2024 | 05:13 | 4.5 | 82 | 1.8 | 1026.5 | 6.1 | N | 0 | 0.0 |
| 15.09.2024 | 05:18 | 4.4 | 83 | 1.7 | 1026.5 | 1.8 | N | 0 | 0.0 |
| 15.09.2024 | 05:23 | 4.5 | 82 | 1.7 | 1026.4 | 4.0 | N | 0 | 0.0 |
| 15.09.2024 | 05:28 | 4.5 | 81 | 1.6 | 1026.3 | 5.0 | N | 0 | 0.0 |
| 15.09.2024 | 05:33 | 4.6 | 81 | 1.6 | 1026.2 | 2.9 | N | 0 | 0.0 |
| 15.09.2024 | 05:38 | 4.6 | 82 | 1.7 | 1026.3 | 2.5 | N | 0 | 0.0 |
| 15.09.2024 | 05:43 | 5.0 | 79 | 1.7 | 1026.3 | 0.4 | N | 0 | 0.0 |
| 15.09.2024 | 05:48 | 4.9 | 83 | 2.2 | 1026.2 | 2.9 | N | 0 | 0.0 |
| 15.09.2024 | 05:53 | 4.5 | 83 | 2.0 | 1026.3 | 2.9 | N | 0 | 0.0 |
| 15.09.2024 | 05:58 | 4.6 | 83 | 2.0 | 1026.3 | 4.7 | N | 0 | 0.0 |
| 15.09.2024 | 06:03 | 4.4 | 82 | 1.7 | 1026.2 | 3.2 | N | 0 | 0.0 |
| 15.09.2024 | 06:08 | 4.4 | 83 | 1.7 | 1026.3 | 2.5 | N | 0 | 0.0 |
| 15.09.2024 | 06:13 | 4.5 | 82 | 1.6 | 1026.3 | 3.2 | N | 0 | 0.0 |
| 15.09.2024 | 06:18 | 4.5 | 81 | 1.5 | 1026.4 | 2.2 | N | 0 | 0.0 |
| 15.09.2024 | 06:23 | 4.7 | 80 | 1.5 | 1026.3 | 2.9 | N | 0 | 0.0 |
| 15.09.2024 | 06:29 | 4.9 | 80 | 1.8 | 1026.1 | 3.2 | N | 0 | 0.0 |
| 15.09.2024 | 06:34 | 4.6 | 82 | 1.8 | 1026.1 | 4.7 | N | 0 | 0.0 |
| 15.09.2024 | 06:39 | 4.3 | 81 | 1.5 | 1026.2 | 5.8 | N | 0 | 0.0 |
| 15.09.2024 | 06:44 | 4.3 | 81 | 1.4 | 1026.2 | 5.4 | N | 0 | 0.0 |
| 15.09.2024 | 06:49 | 4.4 | 81 | 1.4 | 1026.2 | 2.9 | N | 0 | 0.0 |
| 15.09.2024 | 06:54 | 4.6 | 80 | 1.4 | 1026.0 | 2.9 | N | 0 | 0.0 |
| 15.09.2024 | 06:59 | 4.6 | 80 | 1.5 | 1026.0 | 2.5 | N | 0 | 0.0 |
| 15.09.2024 | 07:04 | 4.6 | 83 | 1.9 | 1026.1 | 2.9 | N | 2 | 0.0 |
| 15.09.2024 | 07:09 | 4.3 | 84 | 1.8 | 1026.1 | 4.0 | N | 5 | 0.0 |
| 15.09.2024 | 07:14 | 4.5 | 80 | 1.4 | 1026.2 | 5.0 | N | 8 | 0.0 |
| 15.09.2024 | 07:19 | 4.3 | 81 | 1.3 | 1026.2 | 3.2 | N | 12 | 0.0 |
| 15.09.2024 | 07:24 | 4.4 | 81 | 1.3 | 1026.1 | 4.3 | N | 16 | 0.0 |
| 15.09.2024 | 07:29 | 4.3 | 81 | 1.3 | 1026.1 | 4.3 | N | 21 | 0.0 |
| 15.09.2024 | 07:34 | 4.5 | 80 | 1.3 | 1026.1 | 2.5 | N | 25 | 0.0 |
| 15.09.2024 | 07:39 | 4.4 | 80 | 1.4 | 1026.1 | 3.6 | N | 29 | 0.0 |
| 15.09.2024 | 07:44 | 4.4 | 80 | 1.3 | 1025.9 | 5.0 | N | 33 | 0.0 |
| 15.09.2024 | 07:49 | 4.5 | 80 | 1.3 | 1025.9 | 4.3 | N | 36 | 0.0 |
| 15.09.2024 | 07:54 | 4.8 | 79 | 1.4 | 1025.9 | 1.1 | N | 40 | 0.0 |
| 15.09.2024 | 07:59 | 5.0 | 80 | 1.9 | 1025.8 | 1.1 | N | 44 | 0.0 |
| 15.09.2024 | 08:04 | 5.1 | 82 | 2.3 | 1025.6 | 3.2 | N | 47 | 0.0 |
| 15.09.2024 | 08:09 | 5.2 | 83 | 2.6 | 1025.5 | 1.1 | N | 48 | 0.0 |
| 15.09.2024 | 08:14 | 5.2 | 84 | 2.7 | 1025.4 | 2.2 | N | 51 | 0.0 |
| 15.09.2024 | 08:19 | 5.3 | 83 | 2.7 | 1025.3 | 2.9 | N | 53 | 0.0 |
| 15.09.2024 | 08:24 | 5.3 | 83 | 2.7 | 1025.2 | 1.8 | N | 56 | 0.0 |
| 15.09.2024 | 08:29 | 5.4 | 82 | 2.5 | 1025.1 | 1.4 | N | 59 | 0.0 |
| 15.09.2024 | 08:34 | 5.6 | 81 | 2.6 | 1024.9 | 2.9 | N | 61 | 0.0 |
| 15.09.2024 | 08:39 | 5.8 | 81 | 2.8 | 1024.9 | 1.1 | N | 64 | 0.0 |
| 15.09.2024 | 08:44 | 5.9 | 80 | 2.7 | 1024.8 | 3.2 | N | 66 | 0.0 |
| 15.09.2024 | 08:49 | 6.0 | 78 | 2.5 | 1024.8 | 1.4 | N | 68 | 0.0 |
| 15.09.2024 | 08:54 | 6.2 | 79 | 2.9 | 1024.7 | 2.9 | N | 70 | 0.0 |
| 15.09.2024 | 08:59 | 6.2 | 79 | 2.9 | 1024.6 | 2.2 | N | 72 | 0.0 |
| 15.09.2024 | 09:04 | 6.4 | 78 | 2.8 | 1024.5 | 2.9 | N | 132 | 0.0 |
| 15.09.2024 | 09:09 | 6.5 | 78 | 3.0 | 1024.5 | 1.1 | N | 239 | 0.0 |
| 15.09.2024 | 09:15 | 7.1 | 77 | 3.3 | 1024.3 | 2.9 | N | 245 | 0.0 |
| 15.09.2024 | 09:20 | 7.5 | 75 | 3.4 | 1024.1 | 1.4 | N | 250 | 0.0 |
| 15.09.2024 | 09:25 | 7.4 | 76 | 3.4 | 1024.0 | 2.2 | N | 255 | 0.0 |
| 15.09.2024 | 09:30 | 7.9 | 73 | 3.4 | 1024.0 | 2.2 | N | 259 | 0.0 |
| 15.09.2024 | 09:35 | 7.8 | 71 | 3.0 | 1023.9 | 4.7 | N | 271 | 0.0 |
| 15.09.2024 | 09:40 | 8.2 | 69 | 2.9 | 1023.9 | 1.4 | N | 281 | 0.0 |
| 15.09.2024 | 09:45 | 8.8 | 65 | 2.7 | 1023.7 | 0.7 | N | 298 | 0.0 |
| 15.09.2024 | 09:50 | 8.4 | 66 | 2.3 | 1023.6 | 2.9 | N | 309 | 0.0 |
| 15.09.2024 | 09:55 | 8.7 | 67 | 2.8 | 1023.6 | 1.1 | N | 323 | 0.0 |
| 15.09.2024 | 10:00 | 9.4 | 64 | 3.0 | 1023.3 | 2.5 | N | 339 | 0.0 |
| 15.09.2024 | 10:05 | 9.2 | 64 | 2.7 | 1023.5 | 2.9 | N | 350 | 0.0 |
| 15.09.2024 | 10:10 | 9.3 | 64 | 2.8 | 1023.5 | 3.6 | N | 364 | 0.0 |
| 15.09.2024 | 10:15 | 9.9 | 64 | 3.4 | 1023.4 | 5.4 | N | 378 | 0.0 |
| 15.09.2024 | 10:20 | 10.2 | 62 | 3.2 | 1023.4 | 4.3 | N | 391 | 0.0 |
| 15.09.2024 | 10:25 | 9.7 | 61 | 2.5 | 1023.4 | 3.2 | N | 402 | 0.0 |
| 15.09.2024 | 10:30 | 10.5 | 62 | 3.4 | 1023.3 | 2.5 | N | 413 | 0.0 |
| 15.09.2024 | 10:35 | 10.3 | 61 | 3.0 | 1023.4 | 9.0 | N | 427 | 0.0 |
| 15.09.2024 | 10:40 | 10.0 | 63 | 3.3 | 1023.5 | 10.4 | N | 437 | 0.0 |
| 15.09.2024 | 10:45 | 9.6 | 64 | 3.1 | 1023.6 | 12.6 | N | 453 | 0.0 |
| 15.09.2024 | 10:50 | 10.1 | 60 | 2.7 | 1023.5 | 6.5 | N | 469 | 0.0 |
| 15.09.2024 | 10:55 | 10.2 | 63 | 3.6 | 1023.4 | 12.2 | N | 481 | 0.0 |
| 15.09.2024 | 11:00 | 10.5 | 60 | 3.1 | 1023.4 | 4.0 | N | 487 | 0.0 |
| 15.09.2024 | 11:05 | 11.0 | 59 | 3.4 | 1023.2 | 4.0 | N | 494 | 0.0 |
| 15.09.2024 | 11:10 | 11.0 | 59 | 3.3 | 1023.3 | 6.1 | N | 500 | 0.0 |
| 15.09.2024 | 11:15 | 11.0 | 58 | 3.2 | 1023.2 | 2.2 | N | 505 | 0.0 |
| 15.09.2024 | 11:20 | 11.4 | 58 | 3.5 | 1023.1 | 5.0 | N | 513 | 0.0 |
| 15.09.2024 | 11:25 | 10.9 | 59 | 3.2 | 1023.2 | 10.4 | N | 522 | 0.0 |
| 15.09.2024 | 11:30 | 10.6 | 62 | 3.5 | 1023.2 | 3.6 | N | 530 | 0.0 |
| 15.09.2024 | 11:35 | 10.5 | 61 | 3.4 | 1023.4 | 7.6 | N | 537 | 0.0 |
| 15.09.2024 | 11:40 | 10.2 | 64 | 3.6 | 1023.3 | 15.5 | N | 545 | 0.0 |
| 15.09.2024 | 11:45 | 10.1 | 63 | 3.3 | 1023.4 | 1.4 | N | 553 | 0.0 |
| 15.09.2024 | 11:50 | 10.7 | 61 | 3.5 | 1023.2 | 22.3 | N | 560 | 0.0 |
| 15.09.2024 | 11:55 | 10.6 | 61 | 3.4 | 1023.4 | 7.9 | N | 567 | 0.0 |
| 15.09.2024 | 12:01 | 10.4 | 63 | 3.6 | 1023.5 | 7.2 | N | 576 | 0.0 |
| 15.09.2024 | 12:06 | 10.4 | 62 | 3.3 | 1023.4 | 18.4 | N | 588 | 0.0 |
| 15.09.2024 | 12:11 | 10.4 | 62 | 3.4 | 1023.2 | 18.4 | N | 591 | 0.0 |
| 15.09.2024 | 12:16 | 10.8 | 63 | 3.9 | 1023.2 | 23.4 | N | 598 | 0.0 |
| 15.09.2024 | 12:21 | 11.0 | 60 | 3.6 | 1023.0 | 9.7 | N | 608 | 0.0 |
| 15.09.2024 | 12:26 | 11.5 | 59 | 3.6 | 1023.0 | 5.4 | N | 609 | 0.0 |
| 15.09.2024 | 12:31 | 11.8 | 56 | 3.2 | 1022.9 | 4.3 | N | 609 | 0.0 |
| 15.09.2024 | 12:36 | 12.6 | 54 | 3.5 | 1022.7 | 10.1 | N | 609 | 0.0 |
| 15.09.2024 | 12:41 | 12.3 | 57 | 3.9 | 1022.7 | 0.7 | N | 612 | 0.0 |
| 15.09.2024 | 12:46 | 12.6 | 55 | 3.7 | 1022.5 | 8.3 | N | 614 | 0.0 |
| 15.09.2024 | 12:51 | 11.8 | 56 | 3.3 | 1022.6 | 14.8 | N | 616 | 0.0 |
| 15.09.2024 | 12:56 | 11.5 | 56 | 3.0 | 1022.7 | 12.2 | N | 615 | 0.0 |
| 15.09.2024 | 13:01 | 11.5 | 57 | 3.3 | 1022.6 | 6.5 | N | 618 | 0.0 |
| 15.09.2024 | 13:06 | 11.9 | 58 | 3.7 | 1022.6 | 14.0 | N | 620 | 0.0 |
| 15.09.2024 | 13:11 | 11.7 | 59 | 4.0 | 1022.5 | 16.9 | N | 620 | 0.0 |
| 15.09.2024 | 13:16 | 12.0 | 57 | 3.8 | 1022.5 | 6.8 | N | 624 | 0.0 |
| 15.09.2024 | 13:21 | 11.6 | 56 | 3.1 | 1022.4 | 5.4 | N | 622 | 0.0 |
| 15.09.2024 | 13:26 | 12.3 | 55 | 3.6 | 1022.2 | 13.3 | N | 619 | 0.0 |
| 15.09.2024 | 13:31 | 12.0 | 55 | 3.3 | 1022.2 | 12.6 | N | 618 | 0.0 |
| 15.09.2024 | 13:36 | 12.9 | 54 | 3.7 | 1021.8 | 16.2 | N | 616 | 0.0 |
| 15.09.2024 | 13:41 | 13.2 | 55 | 4.2 | 1021.8 | 5.8 | N | 613 | 0.0 |
| 15.09.2024 | 13:46 | 12.7 | 57 | 4.4 | 1022.0 | 8.6 | N | 612 | 0.0 |
| 15.09.2024 | 13:51 | 13.1 | 54 | 3.9 | 1021.7 | 19.8 | N | 612 | 0.0 |
| 15.09.2024 | 13:56 | 12.9 | 52 | 3.3 | 1021.8 | 4.3 | N | 613 | 0.0 |
| 15.09.2024 | 14:01 | 12.9 | 53 | 3.5 | 1021.7 | 18.4 | N | 613 | 0.0 |
| 15.09.2024 | 14:06 | 13.0 | 54 | 4.0 | 1021.7 | 12.6 | N | 612 | 0.0 |
| 15.09.2024 | 14:11 | 12.3 | 55 | 3.5 | 1021.7 | 4.0 | N | 608 | 0.0 |
| 15.09.2024 | 14:16 | 12.2 | 55 | 3.4 | 1021.8 | 14.8 | N | 607 | 0.0 |
| 15.09.2024 | 14:21 | 12.6 | 56 | 4.0 | 1021.6 | 3.6 | N | 603 | 0.0 |
| 15.09.2024 | 14:26 | 12.5 | 55 | 3.7 | 1021.6 | 9.7 | N | 600 | 0.0 |
| 15.09.2024 | 14:32 | 12.5 | 55 | 3.8 | 1021.5 | 7.2 | N | 596 | 0.0 |
| 15.09.2024 | 14:37 | 12.7 | 55 | 4.0 | 1021.5 | 15.8 | N | 589 | 0.0 |
| 15.09.2024 | 14:42 | 13.1 | 55 | 4.4 | 1021.4 | 10.1 | N | 584 | 0.0 |
| 15.09.2024 | 14:47 | 12.9 | 53 | 3.6 | 1021.3 | 11.5 | N | 582 | 0.0 |
| 15.09.2024 | 14:52 | 13.0 | 55 | 4.2 | 1021.2 | 6.5 | N | 576 | 0.0 |
| 15.09.2024 | 14:57 | 13.2 | 54 | 4.2 | 1021.1 | 10.8 | N | 570 | 0.0 |
| 15.09.2024 | 15:02 | 13.7 | 53 | 4.4 | 1021.0 | 4.0 | N | 564 | 0.0 |
| 15.09.2024 | 15:07 | 13.1 | 54 | 4.0 | 1021.2 | 12.2 | N | 557 | 0.0 |
| 15.09.2024 | 15:12 | 13.6 | 53 | 4.2 | 1021.1 | 6.5 | N | 551 | 0.0 |
| 15.09.2024 | 15:17 | 13.0 | 53 | 3.7 | 1021.2 | 11.9 | N | 544 | 0.0 |
| 15.09.2024 | 15:22 | 13.2 | 53 | 3.9 | 1021.2 | 10.4 | N | 538 | 0.0 |
| 15.09.2024 | 15:27 | 13.2 | 53 | 3.9 | 1021.1 | 14.0 | N | 529 | 0.0 |
| 15.09.2024 | 15:32 | 13.5 | 51 | 3.6 | 1020.9 | 6.8 | N | 523 | 0.0 |
| 15.09.2024 | 15:37 | 14.1 | 51 | 4.2 | 1020.9 | 6.5 | N | 516 | 0.0 |
| 15.09.2024 | 15:42 | 14.1 | 52 | 4.4 | 1020.7 | 12.6 | N | 508 | 0.0 |
| 15.09.2024 | 15:47 | 14.0 | 52 | 4.2 | 1020.7 | 14.0 | N | 500 | 0.0 |
| 15.09.2024 | 15:52 | 14.1 | 52 | 4.4 | 1020.7 | 6.8 | N | 492 | 0.0 |
| 15.09.2024 | 15:57 | 14.0 | 52 | 4.4 | 1020.6 | 2.5 | N | 482 | 0.0 |
| 15.09.2024 | 16:02 | 13.9 | 54 | 4.7 | 1020.6 | 9.0 | N | 474 | 0.0 |
| 15.09.2024 | 16:07 | 13.5 | 55 | 4.7 | 1020.7 | 1.8 | N | 464 | 0.0 |
| 15.09.2024 | 16:12 | 13.6 | 54 | 4.4 | 1020.6 | 13.3 | N | 455 | 0.0 |
| 15.09.2024 | 16:17 | 14.1 | 54 | 4.9 | 1020.5 | 6.5 | N | 445 | 0.0 |
| 15.09.2024 | 16:22 | 14.4 | 50 | 4.2 | 1020.4 | 3.2 | N | 436 | 0.0 |
| 15.09.2024 | 16:27 | 14.6 | 52 | 4.9 | 1020.3 | 2.2 | N | 426 | 0.0 |
| 15.09.2024 | 16:32 | 15.0 | 48 | 4.1 | 1020.1 | 1.4 | N | 416 | 0.0 |
| 15.09.2024 | 16:37 | 14.7 | 50 | 4.4 | 1020.1 | 0.7 | N | 406 | 0.0 |
| 15.09.2024 | 16:42 | 14.5 | 50 | 4.1 | 1020.1 | 6.5 | N | 395 | 0.0 |
| 15.09.2024 | 16:47 | 14.2 | 51 | 4.1 | 1020.3 | 0.7 | N | 385 | 0.0 |
| 15.09.2024 | 16:52 | 14.1 | 52 | 4.3 | 1020.2 | 6.1 | N | 375 | 0.0 |
| 15.09.2024 | 16:57 | 14.6 | 49 | 4.0 | 1020.3 | 11.9 | N | 364 | 0.0 |
| 15.09.2024 | 17:03 | 14.4 | 49 | 3.9 | 1020.1 | 3.2 | N | 354 | 0.0 |
| 15.09.2024 | 17:08 | 14.6 | 48 | 3.8 | 1020.1 | 6.8 | N | 343 | 0.0 |
| 15.09.2024 | 17:13 | 14.8 | 48 | 4.0 | 1020.1 | 1.1 | N | 331 | 0.0 |
| 15.09.2024 | 17:18 | 14.5 | 50 | 4.1 | 1020.0 | 6.5 | N | 320 | 0.0 |
| 15.09.2024 | 17:23 | 13.9 | 51 | 4.0 | 1020.2 | 6.1 | N | 308 | 0.0 |
| 15.09.2024 | 17:28 | 14.3 | 50 | 3.9 | 1020.1 | 1.8 | N | 297 | 0.0 |
| 15.09.2024 | 17:33 | 14.2 | 50 | 4.0 | 1020.1 | 6.1 | N | 285 | 0.0 |
| 15.09.2024 | 17:38 | 14.6 | 47 | 3.6 | 1019.9 | 5.8 | N | 274 | 0.0 |
| 15.09.2024 | 17:43 | 14.3 | 49 | 3.8 | 1020.0 | 0.7 | N | 263 | 0.0 |
| 15.09.2024 | 17:48 | 14.1 | 49 | 3.5 | 1020.1 | 5.8 | N | 253 | 0.0 |
| 15.09.2024 | 17:53 | 13.9 | 50 | 3.7 | 1020.0 | 3.6 | N | 242 | 0.0 |
| 15.09.2024 | 17:58 | 14.0 | 52 | 4.5 | 1020.0 | 3.6 | N | 231 | 0.0 |
| 15.09.2024 | 18:03 | 13.9 | 53 | 4.4 | 1020.1 | 3.6 | N | 219 | 0.0 |
| 15.09.2024 | 18:08 | 13.7 | 52 | 3.9 | 1020.2 | 4.3 | N | 207 | 0.0 |
| 15.09.2024 | 18:13 | 13.8 | 50 | 3.7 | 1020.2 | 6.1 | N | 196 | 0.0 |
| 15.09.2024 | 18:18 | 13.9 | 51 | 3.9 | 1020.2 | 3.6 | N | 183 | 0.0 |
| 15.09.2024 | 18:23 | 13.7 | 51 | 3.8 | 1020.2 | 5.0 | N | 171 | 0.0 |
| 15.09.2024 | 18:28 | 13.7 | 51 | 3.7 | 1020.3 | 8.6 | N | 158 | 0.0 |
| 15.09.2024 | 18:33 | 13.4 | 52 | 3.6 | 1020.3 | 4.7 | N | 46 | 0.0 |
| 15.09.2024 | 18:38 | 13.1 | 54 | 3.9 | 1020.5 | 4.0 | N | 25 | 0.0 |
| 15.09.2024 | 18:43 | 12.7 | 55 | 3.7 | 1020.6 | 2.2 | N | 23 | 0.0 |
| 15.09.2024 | 18:48 | 12.4 | 55 | 3.7 | 1020.7 | 2.2 | N | 22 | 0.0 |
| 15.09.2024 | 18:53 | 11.8 | 62 | 4.8 | 1020.8 | 3.2 | N | 19 | 0.0 |
| 15.09.2024 | 18:58 | 11.9 | 58 | 3.9 | 1020.8 | 3.2 | N | 18 | 0.0 |
| 15.09.2024 | 19:03 | 11.4 | 65 | 5.0 | 1021.0 | 4.3 | N | 17 | 0.0 |
| 15.09.2024 | 19:08 | 10.9 | 67 | 5.1 | 1021.2 | 6.5 | N | 15 | 0.0 |
| 15.09.2024 | 19:13 | 10.7 | 68 | 4.9 | 1021.2 | 4.3 | N | 13 | 0.0 |
| 15.09.2024 | 19:18 | 10.6 | 68 | 5.0 | 1021.3 | 5.4 | N | 12 | 0.0 |
| 15.09.2024 | 19:23 | 10.7 | 66 | 4.7 | 1021.3 | 1.1 | N | 9 | 0.0 |
| 15.09.2024 | 19:28 | 10.6 | 67 | 4.7 | 1021.4 | 4.3 | N | 7 | 0.0 |
| 15.09.2024 | 19:33 | 10.4 | 69 | 4.8 | 1021.4 | 6.1 | N | 5 | 0.0 |
| 15.09.2024 | 19:38 | 9.9 | 71 | 4.8 | 1021.6 | 7.9 | N | 3 | 0.0 |
| 15.09.2024 | 19:44 | 9.9 | 71 | 4.9 | 1021.7 | 2.9 | N | 2 | 0.0 |
| 15.09.2024 | 19:49 | 9.9 | 70 | 4.8 | 1021.8 | 5.8 | N | 0 | 0.0 |
| 15.09.2024 | 19:54 | 9.8 | 70 | 4.6 | 1021.9 | 6.1 | N | 0 | 0.0 |
| 15.09.2024 | 19:59 | 9.7 | 71 | 4.7 | 1022.0 | 6.5 | N | 0 | 0.0 |
| 15.09.2024 | 20:04 | 9.5 | 72 | 4.6 | 1022.1 | 4.0 | N | 0 | 0.0 |
| 15.09.2024 | 20:09 | 9.6 | 70 | 4.4 | 1022.2 | 3.2 | N | 0 | 0.0 |
| 15.09.2024 | 20:14 | 9.7 | 70 | 4.5 | 1022.2 | 2.9 | N | 0 | 0.0 |
| 15.09.2024 | 20:19 | 9.2 | 72 | 4.5 | 1022.3 | 7.6 | N | 0 | 0.0 |
| 15.09.2024 | 20:24 | 9.3 | 71 | 4.3 | 1022.3 | 7.2 | N | 0 | 0.0 |
| 15.09.2024 | 20:29 | 9.5 | 70 | 4.3 | 1022.4 | 4.3 | N | 0 | 0.0 |
| 15.09.2024 | 20:34 | 9.3 | 72 | 4.4 | 1022.4 | 6.8 | N | 0 | 0.0 |
| 15.09.2024 | 20:39 | 9.1 | 72 | 4.3 | 1022.4 | 4.3 | N | 0 | 0.0 |
| 15.09.2024 | 20:44 | 9.0 | 72 | 4.3 | 1022.5 | 5.0 | N | 0 | 0.0 |
| 15.09.2024 | 20:49 | 9.3 | 71 | 4.2 | 1022.6 | 2.9 | N | 0 | 0.0 |
| 15.09.2024 | 20:54 | 9.1 | 72 | 4.3 | 1022.6 | 5.8 | N | 0 | 0.0 |
| 15.09.2024 | 20:59 | 9.2 | 71 | 4.3 | 1022.7 | 4.7 | N | 0 | 0.0 |
| 15.09.2024 | 21:04 | 9.2 | 71 | 4.2 | 1022.7 | 3.6 | N | 0 | 0.0 |
| 15.09.2024 | 21:09 | 8.9 | 72 | 4.2 | 1022.7 | 4.3 | N | 0 | 0.0 |
| 15.09.2024 | 21:14 | 8.7 | 73 | 4.2 | 1022.8 | 4.0 | N | 0 | 0.0 |
| 15.09.2024 | 21:19 | 8.9 | 72 | 4.2 | 1022.8 | 7.9 | N | 0 | 0.0 |
| 15.09.2024 | 21:24 | 8.8 | 73 | 4.2 | 1023.0 | 5.8 | N | 0 | 0.0 |
| 15.09.2024 | 21:29 | 8.8 | 73 | 4.2 | 1022.9 | 8.6 | N | 0 | 0.0 |
| 15.09.2024 | 21:34 | 8.9 | 72 | 4.1 | 1022.9 | 5.4 | N | 0 | 0.0 |
| 15.09.2024 | 21:39 | 8.7 | 72 | 4.0 | 1022.9 | 3.6 | N | 0 | 0.0 |
| 15.09.2024 | 21:44 | 8.7 | 73 | 4.0 | 1022.9 | 4.3 | N | 0 | 0.0 |
| 15.09.2024 | 21:49 | 8.7 | 73 | 4.1 | 1022.8 | 8.3 | N | 0 | 0.0 |
| 15.09.2024 | 21:54 | 8.6 | 73 | 4.0 | 1022.9 | 7.2 | N | 0 | 0.0 |
| 15.09.2024 | 21:59 | 8.5 | 73 | 4.0 | 1022.8 | 7.9 | N | 0 | 0.0 |
| 15.09.2024 | 22:04 | 8.5 | 73 | 3.9 | 1023.0 | 6.8 | N | 0 | 0.0 |
| 15.09.2024 | 22:09 | 8.5 | 73 | 3.9 | 1023.0 | 4.0 | N | 0 | 0.0 |
| 15.09.2024 | 22:15 | 8.7 | 72 | 3.9 | 1022.9 | 4.0 | N | 0 | 0.0 |
| 15.09.2024 | 22:20 | 8.5 | 73 | 3.9 | 1022.9 | 8.6 | N | 0 | 0.0 |
| 15.09.2024 | 22:25 | 8.5 | 72 | 3.8 | 1023.0 | 2.5 | N | 0 | 0.0 |
| 15.09.2024 | 22:30 | 8.5 | 74 | 4.2 | 1022.9 | 3.6 | N | 0 | 0.0 |
| 15.09.2024 | 22:35 | 8.3 | 74 | 3.9 | 1023.0 | 4.7 | N | 0 | 0.0 |
| 15.09.2024 | 22:40 | 8.1 | 74 | 3.8 | 1023.1 | 6.8 | N | 0 | 0.0 |
| 15.09.2024 | 22:45 | 8.3 | 73 | 3.8 | 1023.0 | 4.3 | N | 0 | 0.0 |
| 15.09.2024 | 22:50 | 8.3 | 73 | 3.7 | 1023.1 | 3.2 | N | 0 | 0.0 |
| 15.09.2024 | 22:55 | 8.1 | 74 | 3.8 | 1023.1 | 1.4 | N | 0 | 0.0 |
| 15.09.2024 | 23:00 | 8.0 | 75 | 3.9 | 1023.2 | 1.1 | N | 0 | 0.0 |
| 15.09.2024 | 23:05 | 8.3 | 79 | 4.8 | 1023.1 | 2.5 | N | 0 | 0.0 |
| 15.09.2024 | 23:10 | 7.8 | 78 | 4.3 | 1023.1 | 2.5 | N | 0 | 0.0 |
| 15.09.2024 | 23:15 | 7.7 | 79 | 4.2 | 1023.3 | 0.7 | N | 0 | 0.0 |
| 15.09.2024 | 23:20 | 7.6 | 78 | 4.0 | 1023.2 | 3.6 | N | 0 | 0.0 |
| 15.09.2024 | 23:25 | 7.4 | 78 | 3.8 | 1023.3 | 1.4 | N | 0 | 0.0 |
| 15.09.2024 | 23:30 | 7.4 | 78 | 3.9 | 1023.3 | 2.5 | N | 0 | 0.0 |
| 15.09.2024 | 23:35 | 7.4 | 78 | 3.9 | 1023.2 | 3.6 | N | 0 | 0.0 |
| 15.09.2024 | 23:40 | 7.1 | 81 | 4.0 | 1023.3 | 4.7 | N | 0 | 0.0 |
| 15.09.2024 | 23:45 | 7.1 | 80 | 4.0 | 1023.3 | 3.6 | N | 0 | 0.0 |
| 15.09.2024 | 23:50 | 7.2 | 79 | 3.7 | 1023.2 | 2.2 | N | 0 | 0.0 |
| 15.09.2024 | 23:55 | 7.1 | 79 | 3.8 | 1023.1 | 2.9 | N | 0 | 0.0 |